createdAt,value
2018-05-07T00:03:13.616Z,1021.7
2018-05-07T00:08:13.549Z,1021.8
2018-05-07T00:13:13.886Z,1021.7
2018-05-07T00:18:13.636Z,1021.7
2018-05-07T00:23:25.203Z,1021.7
2018-05-07T00:28:25.121Z,1021.6
2018-05-07T00:33:24.876Z,1021.7
2018-05-07T00:38:24.938Z,1021.7
2018-05-07T00:43:25.124Z,1021.6
2018-05-07T00:48:25.107Z,1021.7
2018-05-07T00:53:25.357Z,1021.7
2018-05-07T00:58:30.572Z,1021.6
2018-05-07T01:03:30.321Z,1021.7
2018-05-07T01:08:43.902Z,1021.6
2018-05-07T01:13:43.642Z,1021.6
2018-05-07T01:18:43.624Z,1021.7
2018-05-07T01:23:43.660Z,1021.6
2018-05-07T01:28:43.619Z,1021.7
2018-05-07T01:33:43.649Z,1021.7
2018-05-07T01:38:43.646Z,1021.8
2018-05-07T01:43:45.252Z,1021.8
2018-05-07T01:48:44.977Z,1021.8
2018-05-07T01:53:57.360Z,1021.7
2018-05-07T01:58:57.081Z,1021.7
2018-05-07T02:03:57.079Z,1021.7
2018-05-07T02:08:57.294Z,1021.6
2018-05-07T02:13:57.220Z,1021.6
2018-05-07T02:18:57.228Z,1021.5
2018-05-07T02:23:57.229Z,1021.6
2018-05-07T02:28:57.176Z,1021.5
2018-05-07T02:33:57.398Z,1021.5
2018-05-07T02:39:08.937Z,1021.5
2018-05-07T02:44:08.661Z,1021.6
2018-05-07T02:49:08.800Z,1021.5
2018-05-07T02:54:08.651Z,1021.5
2018-05-07T02:59:08.672Z,1021.5
2018-05-07T03:04:08.669Z,1021.5
2018-05-07T03:09:08.658Z,1021.5
2018-05-07T03:14:08.704Z,1021.5
2018-05-07T03:19:08.647Z,1021.5
2018-05-07T03:24:20.542Z,1021.5
2018-05-07T03:29:20.270Z,1021.6
2018-05-07T03:34:20.275Z,1021.6
2018-05-07T03:39:20.296Z,1021.6
2018-05-07T03:44:20.503Z,1021.5
2018-05-07T03:49:20.301Z,1021.5
2018-05-07T03:54:21.413Z,1021.5
2018-05-07T03:59:23.353Z,1021.4
2018-05-07T04:04:23.226Z,1021.4
2018-05-07T04:09:35.424Z,1021.4
2018-05-07T04:14:35.126Z,1021.5
2018-05-07T04:19:35.152Z,1021.4
2018-05-07T04:24:35.177Z,1021.3
2018-05-07T04:29:35.159Z,1021.3
2018-05-07T04:34:35.164Z,1021.3
2018-05-07T04:39:35.194Z,1021.3
2018-05-07T04:44:35.887Z,1021.2
2018-05-07T04:49:35.636Z,1021.3
2018-05-07T04:54:48.163Z,1021.2
2018-05-07T04:59:47.888Z,1021.1
2018-05-07T05:04:47.978Z,1021.1
2018-05-07T05:09:47.925Z,1021.1
2018-05-07T05:14:48.057Z,1020.9
2018-05-07T05:19:47.928Z,1020.9
2018-05-07T05:24:47.930Z,1020.8
2018-05-07T05:29:48.299Z,1020.8
2018-05-07T05:34:48.070Z,1020.7
2018-05-07T05:40:00.939Z,1020.7
2018-05-07T05:44:59.669Z,1020.5
2018-05-07T05:50:00.129Z,1020.5
2018-05-07T05:54:59.586Z,1020.5
2018-05-07T05:59:59.827Z,1020.5
2018-05-07T06:04:59.779Z,1020.3
2018-05-07T06:09:59.717Z,1020.2
2018-05-07T06:15:00.077Z,1020.2
2018-05-07T06:19:59.628Z,1020.1
2018-05-07T06:25:11.326Z,1020
2018-05-07T06:30:11.181Z,1020.1
2018-05-07T06:35:11.045Z,1020.1
2018-05-07T06:40:11.236Z,1019.9
2018-05-07T06:45:11.309Z,1020
2018-05-07T06:50:12.181Z,1020.1
2018-05-07T06:55:11.900Z,1020
2018-05-07T07:00:11.881Z,1020
2018-05-07T07:05:11.883Z,1019.9
2018-05-07T07:10:12.496Z,1019.9
2018-05-07T07:15:12.367Z,1019.9
2018-05-07T07:20:12.090Z,1019.9
2018-05-07T07:25:12.078Z,1019.7
2018-05-07T07:30:12.125Z,1019.7
2018-05-07T07:35:24.600Z,1019.7
2018-05-07T07:40:24.285Z,1019.7
2018-05-07T07:45:24.529Z,1019.6
2018-05-07T07:50:24.261Z,1019.8
2018-05-07T07:55:24.615Z,1019.5
2018-05-07T08:00:24.522Z,1019.5
2018-05-07T08:05:24.387Z,1019.5
2018-05-07T08:10:24.290Z,1019.7
2018-05-07T08:15:32.549Z,1019.6
2018-05-07T08:20:32.260Z,1019.6
2018-05-07T08:25:32.267Z,1019.4
2018-05-07T08:30:32.557Z,1019.3
2018-05-07T08:35:32.299Z,1019.3
2018-05-07T08:40:32.444Z,1019.2
2018-05-07T08:45:32.263Z,1019.2
2018-05-07T08:50:32.291Z,1019.1
2018-05-07T08:55:32.615Z,1019
2018-05-07T09:00:44.129Z,1019.1
2018-05-07T09:05:43.709Z,1019.1
2018-05-07T09:10:43.971Z,1019
2018-05-07T09:15:43.718Z,1019
2018-05-07T09:20:44.216Z,1018.9
2018-05-07T09:25:44.618Z,1018.8
2018-05-07T09:30:44.643Z,1018.7
2018-05-07T09:35:44.618Z,1018.7
2018-05-07T09:40:44.606Z,1018.6
2018-05-07T09:45:56.450Z,1018.5
2018-05-07T09:50:56.185Z,1018.5
2018-05-07T09:55:56.183Z,1018.3
2018-05-07T10:00:56.194Z,1018.3
2018-05-07T10:05:56.608Z,1018.2
2018-05-07T10:10:59.510Z,1018.4
2018-05-07T10:15:59.414Z,1018.1
2018-05-07T10:20:59.189Z,1018
2018-05-07T10:25:59.275Z,1018.2
2018-05-07T10:30:59.238Z,1018
2018-05-07T10:35:59.249Z,1017.9
2018-05-07T10:40:59.239Z,1018
2018-05-07T10:45:59.442Z,1017.6
2018-05-07T10:50:59.472Z,1017.7
2018-05-07T10:56:12.160Z,1017.5
2018-05-07T11:01:11.606Z,1017.6
2018-05-07T11:06:11.501Z,1017.4
2018-05-07T11:11:11.460Z,1017.5
2018-05-07T11:16:11.752Z,1017.3
2018-05-07T11:21:11.435Z,1017.2
2018-05-07T11:26:11.511Z,1017.2
2018-05-07T11:31:13.671Z,1017.1
2018-05-07T11:36:13.031Z,1016.9
2018-05-07T11:41:25.422Z,1016.9
2018-05-07T11:46:25.110Z,1016.8
2018-05-07T11:51:25.143Z,1016.8
2018-05-07T11:56:25.072Z,1016.8
2018-05-07T12:01:25.364Z,1016.7
2018-05-07T12:06:25.139Z,1016.5
2018-05-07T12:11:25.180Z,1016.4
2018-05-07T12:16:25.172Z,1016.3
2018-05-07T12:21:26.365Z,1016.2
2018-05-07T12:26:36.725Z,1016.4
2018-05-07T12:31:37.128Z,1016.2
2018-05-07T12:36:36.772Z,1016.1
2018-05-07T12:41:36.445Z,1016.1
2018-05-07T12:46:36.591Z,1016.1
2018-05-07T12:51:36.431Z,1015.9
2018-05-07T12:56:36.448Z,1015.9
2018-05-07T13:01:37.980Z,1015.7
2018-05-07T13:06:37.691Z,1015.6
2018-05-07T13:11:49.982Z,1015.8
2018-05-07T13:16:50.170Z,1015.7
2018-05-07T13:21:49.711Z,1015.5
2018-05-07T13:26:49.720Z,1015.5
2018-05-07T13:31:49.720Z,1018.7
2018-05-07T13:36:50.068Z,1015.4
2018-05-07T13:41:49.765Z,1015.3
2018-05-07T13:46:49.732Z,1015
2018-05-07T13:51:49.745Z,1015
2018-05-07T13:57:01.824Z,1014.9
2018-05-07T14:02:01.655Z,1015
2018-05-07T14:07:01.520Z,1014.7
2018-05-07T14:12:01.766Z,1014.8
2018-05-07T14:17:01.566Z,1014.7
2018-05-07T14:22:01.702Z,1014.7
2018-05-07T14:27:01.573Z,1014.6
2018-05-07T14:32:01.857Z,1014.6
2018-05-07T14:37:01.559Z,1014.5
2018-05-07T14:42:13.605Z,1014.4
2018-05-07T14:47:13.081Z,1014.5
2018-05-07T14:52:13.075Z,1014.4
2018-05-07T14:57:13.069Z,1014.4
2018-05-07T15:02:13.104Z,1014.3
2018-05-07T15:07:13.212Z,1014.3
2018-05-07T15:12:13.216Z,1014.3
2018-05-07T15:17:13.217Z,1014.3
2018-05-07T15:22:13.248Z,1014.2
2018-05-07T15:27:13.256Z,1014.2
2018-05-07T15:32:13.226Z,1014.2
2018-05-07T15:37:13.357Z,1014.1
2018-05-07T15:42:13.261Z,1014.1
2018-05-07T15:47:13.483Z,1014.1
2018-05-07T15:52:25.032Z,1014.2
2018-05-07T15:57:24.764Z,1014.2
2018-05-07T16:02:24.780Z,1014.1
2018-05-07T16:07:24.780Z,1014.1
2018-05-07T16:12:24.738Z,1014.1
2018-05-07T16:17:24.782Z,1014
2018-05-07T16:22:24.870Z,1013.9
2018-05-07T16:27:25.888Z,1014
2018-05-07T16:32:25.654Z,1014
2018-05-07T16:37:38.990Z,1014
2018-05-07T16:42:38.769Z,1014.1
2018-05-07T16:47:38.603Z,1014
2018-05-07T16:52:38.391Z,1013.9
2018-05-07T16:57:38.513Z,1013.9
2018-05-07T17:02:38.514Z,1013.9
2018-05-07T17:07:38.851Z,1013.9
2018-05-07T17:12:40.759Z,1013.8
2018-05-07T17:17:40.105Z,1014
2018-05-07T17:22:50.381Z,1014
2018-05-07T17:27:50.126Z,1014
2018-05-07T17:32:50.839Z,1014
2018-05-07T17:37:50.106Z,1014
2018-05-07T17:42:50.096Z,1014
2018-05-07T17:47:50.297Z,1014
2018-05-07T17:52:50.078Z,1014.1
2018-05-07T17:57:52.340Z,1014.2
2018-05-07T18:02:52.066Z,1014.2
2018-05-07T18:08:04.239Z,1014.2
2018-05-07T18:13:03.987Z,1014.2
2018-05-07T18:18:04.312Z,1014.3
2018-05-07T18:23:05.476Z,1014.4
2018-05-07T18:28:04.018Z,1014.4
2018-05-07T18:33:04.305Z,1014.4
2018-05-07T18:38:04.439Z,1014.5
2018-05-07T18:43:04.180Z,1014.6
2018-05-07T18:48:04.069Z,1014.7
2018-05-07T18:53:15.664Z,1014.9
2018-05-07T18:58:15.364Z,1014.9
2018-05-07T19:03:15.928Z,1015
2018-05-07T19:08:15.334Z,1015
2018-05-07T19:13:15.387Z,1015.1
2018-05-07T19:18:15.365Z,1015.1
2018-05-07T19:23:15.451Z,1015.2
2018-05-07T19:28:16.833Z,1015.4
2018-05-07T19:33:16.518Z,1015.4
2018-05-07T19:38:29.055Z,1015.5
2018-05-07T19:43:28.715Z,1015.6
2018-05-07T19:48:29.340Z,1015.7
2018-05-07T19:53:29.336Z,1015.8
2018-05-07T19:58:31.611Z,1015.7
2018-05-07T20:03:29.116Z,1015.8
2018-05-07T20:08:28.919Z,1015.8
2018-05-07T20:13:32.091Z,1015.8
2018-05-07T20:18:32.891Z,1015.9
2018-05-07T20:23:44.033Z,1015.9
2018-05-07T20:28:44.013Z,1016.1
2018-05-07T20:33:43.751Z,1016.1
2018-05-07T20:38:44.160Z,1016.1
2018-05-07T20:43:44.268Z,1016.1
2018-05-07T20:48:44.389Z,1016.1
2018-05-07T20:53:44.068Z,1016.1
2018-05-07T20:58:45.458Z,1016
2018-05-07T21:03:45.995Z,1016.1
2018-05-07T21:08:57.131Z,1016.1
2018-05-07T21:13:56.780Z,1016.1
2018-05-07T21:18:56.806Z,1016.1
2018-05-07T21:23:57.029Z,1016.2
2018-05-07T21:28:57.180Z,1016.2
2018-05-07T21:33:57.017Z,1016.2
2018-05-07T21:38:57.011Z,1016.3
2018-05-07T21:43:57.574Z,1016.3
2018-05-07T21:48:58.551Z,1016.3
2018-05-07T21:54:10.200Z,1016.4
2018-05-07T21:59:09.834Z,1016.3
2018-05-07T22:04:09.695Z,1016.3
2018-05-07T22:09:09.802Z,1016.3
2018-05-07T22:14:09.866Z,1016.3
2018-05-07T22:19:09.888Z,1016.3
2018-05-07T22:24:09.947Z,1016.2
2018-05-07T22:29:11.344Z,1016.3
2018-05-07T22:34:11.075Z,1016.3
2018-05-07T22:39:24.163Z,1016.2
2018-05-07T22:44:24.082Z,1016.1
2018-05-07T22:49:24.003Z,1016.1
2018-05-07T22:54:24.158Z,1016.1
2018-05-07T22:59:25.566Z,1016
2018-05-07T23:04:25.272Z,1016.1
2018-05-07T23:09:24.518Z,1016.1
2018-05-07T23:14:24.298Z,1016.1
2018-05-07T23:19:24.330Z,1016
2018-05-07T23:24:24.273Z,1016
2018-05-07T23:29:24.289Z,1015.9
2018-05-07T23:34:24.315Z,1015.8
2018-05-07T23:39:26.695Z,1015.9
2018-05-07T23:44:26.532Z,1015.9
2018-05-07T23:49:39.410Z,1015.7
2018-05-07T23:54:39.175Z,1015.7
2018-05-07T23:59:39.154Z,1015.7
